createdAt,value
2022-08-02T00:00:29.660Z,93.68
2022-08-02T00:01:29.636Z,93.49
2022-08-02T00:02:29.514Z,92.91
2022-08-02T00:03:29.434Z,92.62
2022-08-02T00:04:29.362Z,92.72
2022-08-02T00:05:29.286Z,91.85
2022-08-02T00:06:29.213Z,90.89
2022-08-02T00:07:29.142Z,91.47
2022-08-02T00:08:29.067Z,89.98
2022-08-02T00:09:28.985Z,89.89
2022-08-02T00:10:28.925Z,89.60
2022-08-02T00:11:28.844Z,90.37
2022-08-02T00:12:28.763Z,90.90
2022-08-02T00:13:28.691Z,91.96
2022-08-02T00:14:28.614Z,91.76
2022-08-02T00:15:28.543Z,91.96
2022-08-02T00:16:38.159Z,92.82
2022-08-02T00:17:28.394Z,92.91
2022-08-02T00:18:28.317Z,93.10
2022-08-02T00:19:28.245Z,94.16
2022-08-02T00:20:28.167Z,94.35
2022-08-02T00:21:28.094Z,94.35
2022-08-02T00:22:28.012Z,95.12
2022-08-02T00:23:27.944Z,94.93
2022-08-02T00:24:30.566Z,94.93
2022-08-02T00:25:27.793Z,94.83
2022-08-02T00:26:27.714Z,95.31
2022-08-02T00:27:27.639Z,95.41
2022-08-02T00:28:28.348Z,94.83
2022-08-02T00:29:27.488Z,94.45
2022-08-02T00:30:27.411Z,94.07
2022-08-02T00:31:27.343Z,93.15
2022-08-02T00:32:27.278Z,93.44
2022-08-02T00:34:28.046Z,92.57
2022-08-02T00:34:32.041Z,92.57
2022-08-02T00:35:27.042Z,92.00
2022-08-02T00:36:26.965Z,91.81
2022-08-02T00:37:26.887Z,87.96
2022-08-02T00:38:26.815Z,86.68
2022-08-02T00:39:33.800Z,88.11
2022-08-02T00:40:26.662Z,88.88
2022-08-02T00:41:26.591Z,91.47
2022-08-02T00:42:26.526Z,91.96
2022-08-02T00:43:26.440Z,92.53
2022-08-02T00:44:26.365Z,93.39
2022-08-02T00:46:02.297Z,93.01
2022-08-02T00:46:26.213Z,92.72
2022-08-02T00:47:26.141Z,91.96
2022-08-02T00:48:26.073Z,92.29
2022-08-02T00:49:26.063Z,92.48
2022-08-02T00:50:25.914Z,92.86
2022-08-02T00:51:25.838Z,92.86
2022-08-02T00:52:25.760Z,92.96
2022-08-02T00:53:25.687Z,93.35
2022-08-02T00:54:25.612Z,92.19
2022-08-02T00:55:30.858Z,93.54
2022-08-02T00:56:25.463Z,93.35
2022-08-02T00:57:25.389Z,92.58
2022-08-02T00:58:25.311Z,91.14
2022-08-02T00:59:25.236Z,91.24
2022-08-02T01:00:25.163Z,91.62
2022-08-02T01:01:25.162Z,91.91
2022-08-02T01:02:25.010Z,92.00
2022-08-02T01:03:24.936Z,92.63
2022-08-02T01:04:30.303Z,92.54
2022-08-02T01:05:24.786Z,93.68
2022-08-02T01:06:24.712Z,95.03
2022-08-02T01:07:24.634Z,96.56
2022-08-02T01:08:29.617Z,97.52
2022-08-02T01:09:24.491Z,97.71
2022-08-02T01:10:24.408Z,97.81
2022-08-02T01:11:24.335Z,98.00
2022-08-02T01:12:24.263Z,97.61
2022-08-02T01:13:24.184Z,98.00
2022-08-02T01:14:24.106Z,98.48
2022-08-02T01:15:24.033Z,99.15
2022-08-02T01:16:23.955Z,99.53
2022-08-02T01:17:23.880Z,98.38
2022-08-02T01:18:23.807Z,97.61
2022-08-02T01:19:23.730Z,97.81
2022-08-02T01:20:23.652Z,97.95
2022-08-02T01:21:23.581Z,99.53
2022-08-02T01:22:39.372Z,99.99
2022-08-02T01:23:23.438Z,99.99
2022-08-02T01:24:23.353Z,99.99
2022-08-02T01:25:23.277Z,99.99
2022-08-02T01:26:23.199Z,99.82
2022-08-02T01:27:23.131Z,99.44
2022-08-02T01:28:23.048Z,98.86
2022-08-02T01:29:22.976Z,97.90
2022-08-02T01:30:22.898Z,96.94
2022-08-02T01:31:22.826Z,96.47
2022-08-02T01:32:22.745Z,94.84
2022-08-02T01:33:22.671Z,91.09
2022-08-02T01:34:22.592Z,90.81
2022-08-02T01:35:22.520Z,89.94
2022-08-02T01:36:22.442Z,89.27
2022-08-02T01:37:22.370Z,90.42
2022-08-02T01:38:22.293Z,91.67
2022-08-02T01:39:26.367Z,93.01
2022-08-02T01:40:22.145Z,95.03
2022-08-02T01:41:22.068Z,96.66
2022-08-02T01:42:21.991Z,95.98
2022-08-02T01:43:21.916Z,96.27
2022-08-02T01:44:27.263Z,96.08
2022-08-02T01:45:21.774Z,94.98
2022-08-02T01:46:21.690Z,96.42
2022-08-02T01:47:21.614Z,97.76
2022-08-02T01:48:21.537Z,97.33
2022-08-02T01:49:21.742Z,97.04
2022-08-02T01:50:21.397Z,97.52
2022-08-02T01:51:21.311Z,99.05
2022-08-02T01:52:21.236Z,99.99
2022-08-02T01:53:21.161Z,99.99
2022-08-02T01:54:21.080Z,99.99
2022-08-02T01:55:21.011Z,99.99
2022-08-02T01:56:20.926Z,99.99
2022-08-02T01:57:20.857Z,99.99
2022-08-02T01:58:20.777Z,99.99
2022-08-02T01:59:20.712Z,99.99
2022-08-02T02:00:20.623Z,97.85
2022-08-02T02:01:20.573Z,96.32
2022-08-02T02:02:20.479Z,95.94
2022-08-02T02:03:20.402Z,95.56
2022-08-02T02:04:20.320Z,95.46
2022-08-02T02:05:20.247Z,97.76
2022-08-02T02:06:20.171Z,98.72
2022-08-02T02:07:20.095Z,99.01
2022-08-02T02:08:26.924Z,99.34
2022-08-02T02:09:19.945Z,99.99
2022-08-02T02:10:19.865Z,99.99
2022-08-02T02:12:06.508Z,99.99
2022-08-02T02:12:20.518Z,99.99
2022-08-02T02:13:19.641Z,99.99
2022-08-02T02:14:19.564Z,99.99
2022-08-02T02:15:19.490Z,99.99
2022-08-02T02:16:19.410Z,99.99
2022-08-02T02:18:10.677Z,99.99
2022-08-02T02:18:19.265Z,99.99
2022-08-02T02:19:21.119Z,99.77
2022-08-02T02:20:19.118Z,96.70
2022-08-02T02:21:19.033Z,94.17
2022-08-02T02:22:18.957Z,91.58
2022-08-02T02:23:18.879Z,92.73
2022-08-02T02:24:18.803Z,95.17
2022-08-02T02:25:18.734Z,96.70
2022-08-02T02:26:29.471Z,99.99
2022-08-02T02:27:18.578Z,99.99
2022-08-02T02:28:18.505Z,99.99
2022-08-02T02:29:18.428Z,99.99
2022-08-02T02:30:18.351Z,99.99
2022-08-02T02:31:18.275Z,99.99
2022-08-02T02:32:18.197Z,99.99
2022-08-02T02:33:18.119Z,99.99
2022-08-02T02:34:18.044Z,99.99
2022-08-02T02:35:17.969Z,99.99
2022-08-02T02:36:17.893Z,99.99
2022-08-02T02:37:17.817Z,99.99
2022-08-02T02:38:17.740Z,99.99
2022-08-02T02:39:17.666Z,99.99
2022-08-02T02:40:17.587Z,99.99
2022-08-02T02:41:17.513Z,99.99
2022-08-02T02:42:17.435Z,99.99
2022-08-02T02:43:17.365Z,99.99
2022-08-02T02:44:17.281Z,99.99
2022-08-02T02:45:17.208Z,99.99
2022-08-02T02:46:17.129Z,99.99
2022-08-02T02:47:17.054Z,99.43
2022-08-02T02:48:16.977Z,96.51
2022-08-02T02:49:16.961Z,95.51
2022-08-02T02:50:16.827Z,95.22
2022-08-02T02:51:16.751Z,96.37
2022-08-02T02:52:16.674Z,97.04
2022-08-02T02:53:16.595Z,96.27
2022-08-02T02:54:30.693Z,92.82
2022-08-02T02:55:16.445Z,94.12
2022-08-02T02:56:16.370Z,94.40
2022-08-02T02:57:16.297Z,95.27
2022-08-02T02:58:16.215Z,96.32
2022-08-02T02:59:16.148Z,97.47
2022-08-02T03:00:16.067Z,97.95
2022-08-02T03:01:16.281Z,99.53
2022-08-02T03:02:15.909Z,99.99
2022-08-02T03:03:15.832Z,99.48
2022-08-02T03:04:15.764Z,99.99
2022-08-02T03:05:15.681Z,99.99
2022-08-02T03:06:16.117Z,99.99
2022-08-02T03:07:15.532Z,99.99
2022-08-02T03:08:15.455Z,99.99
2022-08-02T03:09:15.376Z,99.99
2022-08-02T03:10:15.301Z,99.99
2022-08-02T03:11:15.226Z,99.99
2022-08-02T03:12:15.150Z,99.99
2022-08-02T03:13:15.073Z,99.99
2022-08-02T03:14:14.995Z,99.99
2022-08-02T03:15:14.921Z,99.99
2022-08-02T03:16:14.842Z,99.99
2022-08-02T03:17:14.767Z,99.99
2022-08-02T03:18:14.693Z,99.99
2022-08-02T03:19:14.632Z,99.99
2022-08-02T03:20:14.537Z,99.99
2022-08-02T03:21:14.463Z,99.99
2022-08-02T03:22:14.513Z,99.99
2022-08-02T03:23:14.304Z,99.99
2022-08-02T03:24:14.229Z,98.66
2022-08-02T03:25:14.154Z,95.79
2022-08-02T03:26:14.079Z,94.93
2022-08-02T03:27:14.001Z,98.09
2022-08-02T03:28:13.936Z,99.99
2022-08-02T03:29:13.849Z,99.99
2022-08-02T03:30:13.777Z,99.99
2022-08-02T03:31:13.696Z,96.08
2022-08-02T03:32:13.996Z,96.75
2022-08-02T03:33:13.538Z,99.99
2022-08-02T03:34:13.464Z,99.99
2022-08-02T03:35:13.393Z,99.99
2022-08-02T03:36:13.314Z,99.99
2022-08-02T03:37:13.234Z,99.99
2022-08-02T03:38:13.159Z,97.71
2022-08-02T03:39:13.088Z,95.17
2022-08-02T03:40:13.019Z,96.99
2022-08-02T03:41:12.928Z,98.33
2022-08-02T03:42:15.695Z,99.48
2022-08-02T03:43:12.775Z,99.99
2022-08-02T03:44:12.703Z,99.99
2022-08-02T03:45:12.624Z,99.99
2022-08-02T03:46:12.548Z,99.99
2022-08-02T03:47:12.469Z,96.47
2022-08-02T03:48:34.190Z,99.33
2022-08-02T03:49:12.334Z,99.99
2022-08-02T03:50:12.237Z,99.99
2022-08-02T03:51:12.162Z,99.99
2022-08-02T03:52:12.554Z,99.99
2022-08-02T03:53:19.908Z,99.99
2022-08-02T03:54:11.934Z,99.99
2022-08-02T03:55:11.854Z,99.99
2022-08-02T03:56:11.778Z,99.99
2022-08-02T03:57:11.703Z,99.99
2022-08-02T03:58:11.628Z,99.99
2022-08-02T03:59:11.551Z,99.99
2022-08-02T04:00:11.472Z,99.99
2022-08-02T04:01:11.495Z,99.99
2022-08-02T04:02:11.688Z,99.99
2022-08-02T04:03:11.242Z,99.99
2022-08-02T04:04:11.168Z,99.99
2022-08-02T04:05:11.087Z,99.99
2022-08-02T04:06:11.008Z,99.99
2022-08-02T04:07:10.934Z,99.99
2022-08-02T04:08:36.728Z,99.99
2022-08-02T04:09:10.777Z,99.99
2022-08-02T04:10:10.705Z,99.99
2022-08-02T04:11:10.627Z,99.99
2022-08-02T04:12:10.875Z,99.99
2022-08-02T04:13:10.473Z,99.99
2022-08-02T04:14:11.258Z,99.99
2022-08-02T04:15:10.317Z,99.99
2022-08-02T04:16:10.243Z,99.99
2022-08-02T04:17:10.169Z,99.99
2022-08-02T04:18:10.093Z,99.99
2022-08-02T04:19:10.014Z,99.99
2022-08-02T04:20:09.936Z,99.99
2022-08-02T04:21:09.858Z,99.99
2022-08-02T04:22:10.061Z,99.99
2022-08-02T04:23:09.705Z,99.99
2022-08-02T04:24:10.956Z,99.99
2022-08-02T04:25:09.607Z,99.99
2022-08-02T04:26:10.931Z,99.99
2022-08-02T04:27:50.974Z,99.99
2022-08-02T04:28:15.706Z,99.99
2022-08-02T04:29:09.254Z,99.99
2022-08-02T04:30:09.170Z,99.99
2022-08-02T04:31:09.092Z,99.99
2022-08-02T04:32:09.354Z,99.99
2022-08-02T04:33:08.950Z,99.99
2022-08-02T04:34:08.861Z,99.99
2022-08-02T04:35:19.266Z,99.99
2022-08-02T04:36:08.709Z,99.99
2022-08-02T04:37:08.630Z,99.99
2022-08-02T04:38:10.467Z,99.99
2022-08-02T04:39:08.475Z,99.99
2022-08-02T04:40:08.402Z,99.99
2022-08-02T04:41:08.322Z,99.99
2022-08-02T04:42:08.247Z,99.99
2022-08-02T04:43:08.172Z,99.99
2022-08-02T04:44:08.092Z,99.99
2022-08-02T04:45:08.023Z,99.99
2022-08-02T04:46:07.941Z,99.99
2022-08-02T04:47:07.873Z,99.99
2022-08-02T04:48:07.785Z,99.99
2022-08-02T04:49:07.784Z,99.99
2022-08-02T04:50:07.634Z,99.99
2022-08-02T04:51:07.556Z,99.99
2022-08-02T04:52:07.480Z,99.99
2022-08-02T04:53:07.403Z,99.99
2022-08-02T04:54:09.634Z,99.99
2022-08-02T04:55:07.251Z,99.99
2022-08-02T04:56:07.173Z,99.99
2022-08-02T04:57:07.098Z,99.99
2022-08-02T04:58:24.106Z,99.99
2022-08-02T04:59:06.948Z,99.99
2022-08-02T05:00:06.933Z,99.99
2022-08-02T05:01:06.870Z,99.99
2022-08-02T05:02:06.720Z,99.99
2022-08-02T05:03:06.636Z,99.99
2022-08-02T05:04:06.562Z,99.99
2022-08-02T05:05:10.134Z,99.99
2022-08-02T05:06:18.996Z,99.99
2022-08-02T05:07:06.334Z,99.99
2022-08-02T05:08:06.259Z,99.99
2022-08-02T05:09:06.175Z,99.99
2022-08-02T05:10:06.100Z,99.99
2022-08-02T05:11:06.021Z,99.99
2022-08-02T05:12:05.947Z,99.99
2022-08-02T05:13:05.870Z,99.99
2022-08-02T05:14:05.834Z,99.99
2022-08-02T05:15:05.722Z,99.99
2022-08-02T05:16:05.644Z,99.99
2022-08-02T05:17:05.616Z,99.99
2022-08-02T05:18:05.495Z,99.99
2022-08-02T05:19:05.413Z,99.99
2022-08-02T05:20:05.334Z,99.99
2022-08-02T05:21:05.258Z,99.99
2022-08-02T05:22:05.189Z,99.99
2022-08-02T05:23:05.111Z,99.99
2022-08-02T05:24:05.032Z,99.99
2022-08-02T05:25:04.963Z,99.99
2022-08-02T05:26:04.879Z,99.99
2022-08-02T05:27:17.154Z,99.99
2022-08-02T05:28:08.350Z,99.99
2022-08-02T05:29:04.655Z,99.99
2022-08-02T05:30:04.572Z,99.99
2022-08-02T05:31:04.493Z,99.99
2022-08-02T05:32:04.418Z,99.99
2022-08-02T05:33:04.341Z,99.99
2022-08-02T05:34:06.621Z,99.99
2022-08-02T05:35:04.190Z,99.99
2022-08-02T05:36:04.113Z,99.99
2022-08-02T05:37:04.038Z,99.99
2022-08-02T05:38:03.966Z,99.99
2022-08-02T05:39:04.644Z,99.99
2022-08-02T05:40:03.809Z,99.99
2022-08-02T05:41:03.735Z,99.99
2022-08-02T05:42:03.662Z,99.99
2022-08-02T05:43:03.583Z,99.99
2022-08-02T05:44:03.505Z,99.99
2022-08-02T05:45:03.428Z,99.99
2022-08-02T05:46:03.361Z,99.99
2022-08-02T05:47:03.284Z,99.99
2022-08-02T05:48:04.009Z,99.99
2022-08-02T05:49:03.169Z,99.99
2022-08-02T05:50:03.054Z,99.99
2022-08-02T05:51:02.977Z,99.99
2022-08-02T05:52:02.902Z,99.99
2022-08-02T05:53:02.823Z,99.99
2022-08-02T05:54:02.747Z,99.99
2022-08-02T05:55:02.668Z,99.99
2022-08-02T05:56:08.099Z,99.99
2022-08-02T05:57:02.517Z,99.99
2022-08-02T05:58:02.447Z,99.99
2022-08-02T05:59:02.378Z,99.99
2022-08-02T06:00:02.921Z,99.99
2022-08-02T06:01:02.214Z,99.99
2022-08-02T06:02:02.215Z,99.99
2022-08-02T06:03:02.068Z,99.99
2022-08-02T06:04:01.999Z,99.99
2022-08-02T06:05:01.916Z,99.99
2022-08-02T06:06:01.840Z,99.99
2022-08-02T06:07:01.759Z,99.99
2022-08-02T06:08:01.685Z,99.99
2022-08-02T06:09:01.610Z,99.99
2022-08-02T06:10:01.550Z,99.99
2022-08-02T06:11:01.465Z,99.99
2022-08-02T06:12:02.954Z,99.99
2022-08-02T06:13:01.309Z,99.99
2022-08-02T06:14:01.257Z,99.99
2022-08-02T06:15:01.157Z,99.99
2022-08-02T06:16:01.081Z,99.99
2022-08-02T06:17:01.008Z,99.99
2022-08-02T06:18:00.933Z,99.99
2022-08-02T06:19:00.870Z,99.99
2022-08-02T06:20:00.780Z,99.99
2022-08-02T06:22:30.486Z,99.99
2022-08-02T06:22:42.029Z,99.99
2022-08-02T06:23:00.558Z,99.99
2022-08-02T06:24:00.486Z,99.99
2022-08-02T06:25:00.401Z,99.99
2022-08-02T06:26:00.330Z,99.99
2022-08-02T06:27:00.254Z,99.99
2022-08-02T06:28:00.176Z,99.73
2022-08-02T06:29:00.105Z,99.99
2022-08-02T06:30:00.031Z,99.73
2022-08-02T06:30:59.954Z,99.59
2022-08-02T06:31:59.877Z,98.82
2022-08-02T06:32:59.807Z,98.72
2022-08-02T06:33:59.732Z,98.14
2022-08-02T06:34:59.649Z,97.76
2022-08-02T06:35:59.574Z,96.99
2022-08-02T06:36:59.502Z,96.99
2022-08-02T06:37:59.436Z,96.89
2022-08-02T06:38:59.352Z,96.22
2022-08-02T06:39:59.276Z,96.03
2022-08-02T06:40:59.201Z,96.70
2022-08-02T06:41:59.127Z,95.74
2022-08-02T06:42:59.050Z,96.32
2022-08-02T06:44:08.955Z,95.50
2022-08-02T06:44:58.908Z,95.60
2022-08-02T06:47:08.354Z,94.92
2022-08-02T06:47:10.793Z,94.64
2022-08-02T06:47:58.679Z,94.44
2022-08-02T06:48:58.621Z,94.25
2022-08-02T06:49:58.609Z,93.48
2022-08-02T06:50:58.452Z,93.09
2022-08-02T06:51:58.377Z,92.80
2022-08-02T06:52:58.305Z,92.18
2022-08-02T06:53:58.241Z,92.66
2022-08-02T06:54:58.153Z,92.37
2022-08-02T06:55:58.079Z,92.47
2022-08-02T06:56:58.003Z,92.08
2022-08-02T06:57:57.926Z,91.89
2022-08-02T06:58:57.853Z,91.60
2022-08-02T06:59:57.779Z,91.31
2022-08-02T07:00:57.706Z,90.58
2022-08-02T07:01:57.675Z,90.39
2022-08-02T07:02:57.557Z,90.68
2022-08-02T07:03:57.480Z,89.43
2022-08-02T07:04:57.408Z,89.91
2022-08-02T07:05:57.331Z,89.14
2022-08-02T07:06:57.266Z,89.43
2022-08-02T07:07:57.185Z,88.85
2022-08-02T07:09:19.349Z,88.75
2022-08-02T07:10:00.423Z,88.85
2022-08-02T07:10:56.963Z,88.65
2022-08-02T07:11:56.886Z,89.37
2022-08-02T07:12:59.794Z,88.22
2022-08-02T07:13:56.739Z,87.93
2022-08-02T07:14:56.663Z,87.16
2022-08-02T07:15:56.591Z,86.96
2022-08-02T07:16:56.516Z,86.10
2022-08-02T07:17:56.441Z,86.19
2022-08-02T07:18:56.368Z,86.68
2022-08-02T07:19:56.294Z,86.14
2022-08-02T07:20:56.218Z,85.27
2022-08-02T07:22:01.718Z,85.56
2022-08-02T07:22:56.070Z,85.66
2022-08-02T07:23:55.997Z,85.08
2022-08-02T07:24:55.921Z,84.79
2022-08-02T07:26:03.025Z,85.17
2022-08-02T07:27:10.777Z,84.25
2022-08-02T07:27:55.702Z,83.96
2022-08-02T07:28:55.631Z,83.87
2022-08-02T07:29:55.554Z,83.58
2022-08-02T07:30:55.481Z,83.58
2022-08-02T07:31:55.417Z,83.48
2022-08-02T07:32:55.331Z,83.58
2022-08-02T07:33:55.257Z,83.48
2022-08-02T07:34:55.587Z,83.52
2022-08-02T07:35:55.114Z,81.98
2022-08-02T07:36:55.037Z,81.40
2022-08-02T07:37:58.123Z,81.20
2022-08-02T07:38:54.893Z,81.40
2022-08-02T07:39:54.818Z,80.38
2022-08-02T07:40:54.747Z,79.70
2022-08-02T07:41:54.673Z,79.80
2022-08-02T07:42:59.310Z,79.74
2022-08-02T07:43:54.523Z,79.83
2022-08-02T07:44:54.451Z,79.74
2022-08-02T07:45:57.348Z,79.54
2022-08-02T07:46:54.307Z,78.00
2022-08-02T07:47:54.234Z,78.19
2022-08-02T07:48:54.194Z,78.77
2022-08-02T07:49:54.086Z,79.16
2022-08-02T07:50:54.018Z,79.06
2022-08-02T07:51:53.946Z,79.16
2022-08-02T07:52:57.420Z,78.71
2022-08-02T07:54:02.035Z,78.81
2022-08-02T07:54:53.736Z,77.75
2022-08-02T07:55:53.653Z,77.84
2022-08-02T07:56:58.599Z,78.66
2022-08-02T07:57:53.506Z,77.59
2022-08-02T07:58:53.436Z,76.86
2022-08-02T07:59:53.361Z,75.60
2022-08-02T08:00:53.292Z,74.53
2022-08-02T08:01:53.272Z,74.73
2022-08-02T08:02:57.350Z,74.86
2022-08-02T08:03:53.073Z,74.57
2022-08-02T08:04:52.999Z,74.76
2022-08-02T08:05:52.927Z,74.47
2022-08-02T08:06:52.861Z,73.05
2022-08-02T08:07:52.789Z,71.66
2022-08-02T08:08:52.717Z,71.50
2022-08-02T08:09:56.553Z,71.60
2022-08-02T08:10:52.573Z,71.60
2022-08-02T08:11:52.498Z,71.41
2022-08-02T08:12:52.430Z,72.47
2022-08-02T08:13:52.356Z,73.25
2022-08-02T08:14:52.287Z,72.38
2022-08-02T08:15:52.766Z,72.28
2022-08-02T08:16:52.142Z,72.99
2022-08-02T08:17:52.070Z,71.83
2022-08-02T08:18:51.998Z,70.99
2022-08-02T08:19:53.014Z,70.51
2022-08-02T08:20:52.041Z,70.12
2022-08-02T08:21:51.785Z,69.93
2022-08-02T08:22:51.718Z,69.83
2022-08-02T08:23:51.644Z,69.96
2022-08-02T08:24:51.580Z,68.79
2022-08-02T08:25:51.501Z,68.21
2022-08-02T08:26:51.449Z,70.15
2022-08-02T08:27:51.362Z,69.41
2022-08-02T08:28:51.291Z,67.24
2022-08-02T08:29:51.220Z,66.40
2022-08-02T08:30:51.151Z,66.21
2022-08-02T08:31:51.076Z,66.11
2022-08-02T08:32:51.012Z,65.92
2022-08-02T08:33:50.938Z,65.82
2022-08-02T08:34:50.867Z,66.50
2022-08-02T08:35:50.798Z,66.21
2022-08-02T08:36:50.733Z,65.72
2022-08-02T08:37:50.657Z,65.53
2022-08-02T08:38:50.590Z,65.92
2022-08-02T08:39:57.178Z,66.11
2022-08-02T08:40:50.448Z,65.33
2022-08-02T08:41:50.373Z,64.98
2022-08-02T08:42:50.310Z,64.11
2022-08-02T08:43:53.404Z,65.27
2022-08-02T08:44:50.171Z,66.63
2022-08-02T08:45:55.636Z,63.71
2022-08-02T08:46:50.027Z,62.84
2022-08-02T08:47:49.955Z,61.58
2022-08-02T08:48:49.942Z,63.32
2022-08-02T08:49:52.716Z,63.17
2022-08-02T08:50:49.753Z,63.75
2022-08-02T08:51:49.679Z,63.26
2022-08-02T08:52:49.614Z,62.87
2022-08-02T08:53:49.539Z,62.03
2022-08-02T08:54:49.982Z,63.10
2022-08-02T08:55:49.402Z,62.03
2022-08-02T08:56:49.338Z,61.83
2022-08-02T08:57:49.265Z,62.84
2022-08-02T08:58:49.194Z,61.57
2022-08-02T08:59:49.123Z,60.60
2022-08-02T09:00:49.092Z,60.47
2022-08-02T09:01:49.852Z,60.57
2022-08-02T09:02:48.921Z,60.79
2022-08-02T09:03:48.853Z,61.57
2022-08-02T09:04:49.295Z,62.06
2022-08-02T09:05:48.710Z,61.21
2022-08-02T09:06:48.645Z,60.05
2022-08-02T09:07:48.576Z,59.43
2022-08-02T09:08:48.504Z,59.63
2022-08-02T09:09:48.443Z,60.11
2022-08-02T09:10:48.369Z,60.47
2022-08-02T09:11:48.299Z,60.60
2022-08-02T09:12:48.230Z,60.21
2022-08-02T09:13:48.158Z,59.72
2022-08-02T09:14:50.397Z,59.14
2022-08-02T09:15:48.025Z,60.21
2022-08-02T09:16:47.956Z,60.21
2022-08-02T09:17:47.890Z,60.70
2022-08-02T09:18:47.818Z,60.89
2022-08-02T09:19:47.745Z,60.28
2022-08-02T09:20:47.681Z,60.28
2022-08-02T09:21:47.607Z,60.67
2022-08-02T09:22:47.551Z,60.93
2022-08-02T09:23:47.488Z,60.93
2022-08-02T09:24:47.403Z,61.41
2022-08-02T09:25:58.959Z,61.22
2022-08-02T09:26:47.274Z,61.51
2022-08-02T09:27:47.201Z,61.58
2022-08-02T09:28:47.135Z,62.45
2022-08-02T09:30:09.774Z,62.07
2022-08-02T09:30:46.995Z,61.87
2022-08-02T09:31:50.029Z,61.97
2022-08-02T09:32:46.869Z,62.07
2022-08-02T09:33:46.787Z,62.94
2022-08-02T09:34:46.719Z,62.55
2022-08-02T09:36:06.796Z,62.65
2022-08-02T09:36:46.582Z,62.45
2022-08-02T09:37:48.688Z,61.77
2022-08-02T09:38:46.443Z,62.07
2022-08-02T09:39:46.591Z,62.07
2022-08-02T09:40:46.306Z,61.97
2022-08-02T09:41:46.237Z,61.87
2022-08-02T09:42:46.168Z,61.48
2022-08-02T09:44:04.032Z,61.87
2022-08-02T09:44:46.027Z,61.77
2022-08-02T09:45:45.962Z,61.12
2022-08-02T09:46:45.888Z,61.51
2022-08-02T09:47:45.825Z,61.54
2022-08-02T09:48:45.756Z,60.96
2022-08-02T09:49:45.698Z,61.96
2022-08-02T09:50:45.615Z,62.26
2022-08-02T09:51:45.547Z,61.31
2022-08-02T09:52:45.489Z,60.63
2022-08-02T09:53:45.407Z,61.73
2022-08-02T09:54:45.340Z,60.95
2022-08-02T09:55:45.272Z,58.94
2022-08-02T09:56:45.214Z,58.94
2022-08-02T09:57:51.101Z,59.26
2022-08-02T09:58:45.067Z,57.70
2022-08-02T09:59:44.998Z,56.85
2022-08-02T10:00:52.483Z,56.85
2022-08-02T10:01:48.436Z,57.24
2022-08-02T10:02:44.799Z,55.97
2022-08-02T10:03:44.724Z,54.70
2022-08-02T10:04:52.530Z,54.80
2022-08-02T10:05:46.959Z,54.50
2022-08-02T10:06:44.522Z,54.50
2022-08-02T10:07:44.452Z,54.68
2022-08-02T10:08:44.387Z,56.11
2022-08-02T10:09:47.488Z,55.82
2022-08-02T10:10:44.254Z,56.21
2022-08-02T10:11:44.187Z,55.50
2022-08-02T10:12:44.116Z,56.76
2022-08-02T10:13:44.049Z,56.67
2022-08-02T10:14:43.983Z,57.25
2022-08-02T10:15:50.235Z,57.54
2022-08-02T10:16:43.853Z,57.54
2022-08-02T10:17:43.789Z,57.64
2022-08-02T10:18:43.709Z,57.25
2022-08-02T10:20:02.961Z,57.22
2022-08-02T10:20:43.575Z,57.64
2022-08-02T10:21:46.592Z,56.76
2022-08-02T10:22:43.443Z,57.25
2022-08-02T10:23:43.372Z,56.35
2022-08-02T10:24:48.362Z,56.74
2022-08-02T10:25:43.238Z,56.93
2022-08-02T10:26:43.168Z,56.84
2022-08-02T10:28:04.294Z,57.61
2022-08-02T10:28:43.037Z,56.64
2022-08-02T10:29:53.399Z,57.03
2022-08-02T10:30:42.902Z,58.71
2022-08-02T10:31:42.832Z,58.32
2022-08-02T10:32:42.764Z,57.74
2022-08-02T10:33:42.697Z,57.47
2022-08-02T10:34:42.629Z,56.89
2022-08-02T10:35:42.557Z,56.72
2022-08-02T10:36:42.493Z,55.46
2022-08-02T10:37:42.422Z,54.48
2022-08-02T10:38:42.357Z,53.89
2022-08-02T10:39:42.288Z,54.48
2022-08-02T10:40:42.224Z,54.85
2022-08-02T10:41:42.156Z,55.43
2022-08-02T10:42:42.085Z,55.72
2022-08-02T10:43:42.020Z,55.82
2022-08-02T10:44:41.952Z,54.52
2022-08-02T10:45:41.881Z,54.62
2022-08-02T10:46:41.816Z,54.91
2022-08-02T10:47:41.747Z,55.60
2022-08-02T10:48:41.684Z,56.76
2022-08-02T10:49:41.693Z,56.09
2022-08-02T10:50:41.570Z,55.99
2022-08-02T10:51:41.478Z,55.99
2022-08-02T10:52:41.411Z,56.25
2022-08-02T10:53:41.344Z,56.74
2022-08-02T10:54:41.273Z,56.64
2022-08-02T10:55:41.209Z,56.54
2022-08-02T10:56:41.143Z,56.54
2022-08-02T10:57:41.073Z,56.45
2022-08-02T10:58:41.007Z,57.03
2022-08-02T10:59:40.940Z,55.66
2022-08-02T11:00:40.913Z,55.86
2022-08-02T11:01:40.833Z,56.64
2022-08-02T11:02:40.730Z,57.51
2022-08-02T11:03:40.938Z,56.86
2022-08-02T11:04:40.596Z,58.61
2022-08-02T11:05:42.304Z,57.45
2022-08-02T11:06:40.465Z,56.70
2022-08-02T11:07:40.397Z,55.65
2022-08-02T11:08:40.324Z,54.97
2022-08-02T11:09:40.259Z,54.11
2022-08-02T11:10:40.196Z,54.02
2022-08-02T11:11:53.909Z,54.53
2022-08-02T11:12:40.055Z,54.24
2022-08-02T11:13:39.990Z,54.14
2022-08-02T11:14:39.921Z,54.56
2022-08-02T11:15:39.853Z,52.41
2022-08-02T11:16:39.790Z,52.31
2022-08-02T11:17:41.137Z,52.25
2022-08-02T11:18:39.653Z,51.17
2022-08-02T11:19:39.589Z,52.05
2022-08-02T11:20:39.519Z,53.25
2022-08-02T11:21:39.455Z,50.49
2022-08-02T11:22:39.384Z,51.49
2022-08-02T11:23:44.153Z,50.42
2022-08-02T11:24:39.252Z,49.53
2022-08-02T11:26:02.701Z,50.49
2022-08-02T11:26:39.119Z,50.42
2022-08-02T11:27:39.053Z,48.34
2022-08-02T11:28:38.987Z,48.90
2022-08-02T11:29:39.102Z,48.88
2022-08-02T11:30:38.852Z,49.54
2022-08-02T11:31:38.787Z,49.93
2022-08-02T11:32:38.719Z,50.58
2022-08-02T11:33:38.653Z,51.65
2022-08-02T11:34:38.603Z,51.43
2022-08-02T11:35:38.530Z,52.40
2022-08-02T11:36:38.452Z,51.82
2022-08-02T11:37:38.391Z,52.22
2022-08-02T11:38:38.322Z,51.92
2022-08-02T11:39:38.255Z,51.04
2022-08-02T11:40:38.191Z,51.41
2022-08-02T11:41:46.253Z,51.41
2022-08-02T11:42:38.055Z,52.67
2022-08-02T11:43:37.992Z,52.87
2022-08-02T11:44:37.922Z,52.58
2022-08-02T11:45:37.859Z,52.09
2022-08-02T11:46:37.791Z,52.19
2022-08-02T11:47:37.725Z,51.80
2022-08-02T11:48:37.651Z,51.90
2022-08-02T11:49:37.646Z,52.80
2022-08-02T11:50:37.519Z,54.68
2022-08-02T11:51:37.461Z,54.28
2022-08-02T11:52:37.389Z,54.02
2022-08-02T11:53:37.327Z,53.63
2022-08-02T11:54:37.253Z,52.09
2022-08-02T11:55:37.188Z,52.41
2022-08-02T11:56:37.122Z,51.92
2022-08-02T11:58:03.473Z,51.53
2022-08-02T11:58:36.986Z,52.64
2022-08-02T11:59:36.923Z,50.78
2022-08-02T12:00:36.855Z,50.20
2022-08-02T12:01:45.398Z,50.00
2022-08-02T12:02:36.724Z,48.34
2022-08-02T12:03:36.703Z,48.63
2022-08-02T12:04:36.591Z,49.71
2022-08-02T12:06:05.684Z,47.97
2022-08-02T12:06:36.459Z,47.97
2022-08-02T12:07:36.558Z,49.73
2022-08-02T12:08:36.325Z,48.07
2022-08-02T12:09:40.881Z,47.07
2022-08-02T12:10:36.203Z,47.27
2022-08-02T12:11:39.313Z,47.75
2022-08-02T12:12:36.070Z,48.44
2022-08-02T12:13:35.994Z,48.24
2022-08-02T12:14:35.938Z,47.85
2022-08-02T12:15:35.860Z,48.12
2022-08-02T12:16:35.795Z,47.83
2022-08-02T12:17:35.734Z,47.92
2022-08-02T12:18:35.670Z,47.41
2022-08-02T12:19:35.595Z,47.44
2022-08-02T12:20:35.529Z,47.53
2022-08-02T12:21:35.465Z,48.12
2022-08-02T12:22:38.876Z,48.02
2022-08-02T12:23:35.336Z,47.24
2022-08-02T12:24:35.274Z,47.34
2022-08-02T12:25:35.635Z,49.29
2022-08-02T12:26:35.136Z,47.85
2022-08-02T12:27:35.083Z,46.56
2022-08-02T12:28:35.002Z,46.95
2022-08-02T12:29:56.011Z,46.85
2022-08-02T12:30:34.869Z,47.05
2022-08-02T12:31:34.808Z,46.85
2022-08-02T12:32:34.736Z,46.85
2022-08-02T12:33:39.098Z,47.51
2022-08-02T12:34:34.605Z,46.63
2022-08-02T12:35:34.536Z,47.31
2022-08-02T12:36:34.474Z,49.19
2022-08-02T12:37:34.415Z,49.19
2022-08-02T12:38:34.341Z,49.12
2022-08-02T12:39:34.275Z,47.85
2022-08-02T12:40:34.219Z,48.05
2022-08-02T12:41:34.139Z,47.87
2022-08-02T12:42:34.072Z,46.14
2022-08-02T12:43:34.006Z,45.84
2022-08-02T12:44:33.945Z,45.14
2022-08-02T12:45:36.537Z,44.74
2022-08-02T12:46:41.953Z,45.92
2022-08-02T12:47:35.963Z,46.80
2022-08-02T12:48:37.355Z,46.53
2022-08-02T12:49:33.667Z,46.92
2022-08-02T12:50:33.554Z,47.04
2022-08-02T12:51:51.130Z,47.26